< < Back
Terminal Aerodrome Forecast


Current Version              Previous Versions:   1  2  3  4  5  6  7  8  9  

Terminal Aerodrome Forecast

776
FTUS44 KMRX 032330
TAFTYS
TAF
KTYS 032330Z 0400/0424 23015KT P6SM SCT020 BKN080
      TEMPO 0403/0406 23015KT 4SM -SHRA BR BKN025
     FM040600 23008KT P6SM SCT010 BKN020
     FM041100 23010KT 4SM -SHRA BR OVC012
      TEMPO 0412/0416 2SM SHRA BR BKN007
     FM041600 23010KT P6SM VCSH SCT020 BKN080
     FM042200 23008KT P6SM -SHRA BKN030=



Latest METAR

321
SAUS80 KWBC 050000 RRC
MTRTYS
METAR KTYS 042353Z 23009KT 10SM SCT025 SCT045 BKN080 BKN250 24/19 A3001
RMK AO2 SLP152 T02440194 10256 20233 55001


USA.gov is the U.S. government's official web portal to all federal, state and local government web resources and services.